createdAt,value
2018-03-25T00:00:43.500Z,-2.79
2018-03-25T00:01:49.425Z,-2.83
2018-03-25T00:02:55.575Z,-2.78
2018-03-25T00:04:01.349Z,-2.74
2018-03-25T00:05:07.327Z,-2.66
2018-03-25T00:06:13.298Z,-2.70
2018-03-25T00:07:19.244Z,-2.74
2018-03-25T00:08:25.192Z,-2.74
2018-03-25T00:09:31.174Z,-2.78
2018-03-25T00:10:37.154Z,-2.81
2018-03-25T00:11:43.095Z,-2.87
2018-03-25T00:12:49.055Z,-2.89
2018-03-25T00:13:55.024Z,-2.91
2018-03-25T00:15:00.983Z,-2.82
2018-03-25T00:16:06.980Z,-2.81
2018-03-25T00:17:12.916Z,-2.76
2018-03-25T00:18:18.878Z,-2.78
2018-03-25T00:19:24.834Z,-2.75
2018-03-25T00:20:30.813Z,-2.52
2018-03-25T00:21:36.756Z,-2.47
2018-03-25T00:22:42.727Z,-2.51
2018-03-25T00:23:48.679Z,-2.51
2018-03-25T00:24:54.655Z,-2.60
2018-03-25T00:26:00.632Z,-2.71
2018-03-25T00:27:08.689Z,-2.78
2018-03-25T00:28:12.526Z,-2.83
2018-03-25T00:29:19.011Z,-2.92
2018-03-25T00:30:25.913Z,-2.97
2018-03-25T00:31:30.460Z,-2.97
2018-03-25T00:32:36.789Z,-2.95
2018-03-25T00:33:42.347Z,-2.96
2018-03-25T00:35:54.298Z,-3.04
2018-03-25T00:37:00.231Z,-3.05
2018-03-25T00:38:06.192Z,-3.10
2018-03-25T00:39:12.143Z,-3.14
2018-03-25T00:40:18.132Z,-3.12
2018-03-25T00:41:24.071Z,-3.09
2018-03-25T00:42:30.015Z,-2.89
2018-03-25T00:43:35.985Z,-2.79
2018-03-25T00:44:41.940Z,-2.65
2018-03-25T00:45:47.918Z,-2.63
2018-03-25T00:46:53.934Z,-2.77
2018-03-25T00:47:59.816Z,-2.90
2018-03-25T00:51:17.710Z,-2.98
2018-03-25T00:52:24.208Z,-3.05
2018-03-25T00:53:30.133Z,-3.13
2018-03-25T00:54:35.625Z,-3.21
2018-03-25T00:55:41.548Z,-3.27
2018-03-25T00:56:47.491Z,-3.28
2018-03-25T00:57:53.433Z,-3.31
2018-03-25T00:58:59.405Z,-3.30
2018-03-25T01:00:05.348Z,-3.27
2018-03-25T01:01:11.331Z,-3.26
2018-03-25T01:02:17.293Z,-3.28
2018-03-25T01:03:23.223Z,-3.26
2018-03-25T01:04:29.177Z,-3.24
2018-03-25T01:05:35.646Z,-3.24
2018-03-25T01:06:41.118Z,-3.23
2018-03-25T01:07:47.201Z,-3.21
2018-03-25T01:08:53.114Z,-3.22
2018-03-25T01:09:59.148Z,-3.18
2018-03-25T01:11:04.980Z,-3.11
2018-03-25T01:12:10.948Z,-3.05
2018-03-25T01:13:16.908Z,-3.03
2018-03-25T01:14:22.903Z,-3.03
2018-03-25T01:15:28.791Z,-3.09
2018-03-25T01:16:35.215Z,-3.11
2018-03-25T01:17:41.220Z,-3.12
2018-03-25T01:18:46.609Z,-3.12
2018-03-25T01:19:52.556Z,-3.05
2018-03-25T01:20:58.526Z,-2.95
2018-03-25T01:22:04.546Z,-2.91
2018-03-25T01:23:10.429Z,-2.91
2018-03-25T01:24:16.367Z,-2.93
2018-03-25T01:25:22.312Z,-2.98
2018-03-25T01:26:28.284Z,-3.06
2018-03-25T01:27:34.221Z,-3.15
2018-03-25T01:28:40.179Z,-3.25
2018-03-25T01:29:46.122Z,-3.36
2018-03-25T01:30:52.101Z,-3.47
2018-03-25T01:31:58.026Z,-3.55
2018-03-25T01:33:03.988Z,-3.51
2018-03-25T01:34:09.929Z,-3.54
2018-03-25T01:35:15.874Z,-3.53
2018-03-25T01:36:21.846Z,-3.29
2018-03-25T01:37:27.785Z,-3.17
2018-03-25T01:38:33.742Z,-3.19
2018-03-25T01:39:39.679Z,-3.25
2018-03-25T01:43:38.803Z,-3.28
2018-03-25T01:44:44.762Z,-3.35
2018-03-25T01:45:50.737Z,-3.53
2018-03-25T01:46:56.678Z,-3.61
2018-03-25T01:48:02.618Z,-3.49
2018-03-25T01:49:08.583Z,-3.53
2018-03-25T01:50:14.527Z,-3.60
2018-03-25T01:51:20.497Z,-3.68
2018-03-25T01:52:26.432Z,-3.62
2018-03-25T01:53:32.375Z,-3.67
2018-03-25T01:54:38.326Z,-3.71
2018-03-25T01:55:44.309Z,-3.73
2018-03-25T01:56:50.220Z,-3.76
2018-03-25T01:57:56.169Z,-3.78
2018-03-25T01:59:02.119Z,-3.80
2018-03-25T02:00:08.075Z,-3.84
2018-03-25T02:01:14.053Z,-3.76
2018-03-25T02:02:19.949Z,-3.72
2018-03-25T02:03:25.889Z,-3.65
2018-03-25T02:04:31.846Z,-3.65
2018-03-25T02:05:37.809Z,-3.66
2018-03-25T02:06:43.728Z,-3.63
2018-03-25T02:07:49.866Z,-3.66
2018-03-25T02:08:55.636Z,-3.64
2018-03-25T02:10:01.579Z,-3.60
2018-03-25T02:11:07.533Z,-3.55
2018-03-25T02:12:13.459Z,-3.48
2018-03-25T02:13:19.400Z,-3.51
2018-03-25T02:14:25.869Z,-3.55
2018-03-25T02:15:31.295Z,-3.59
2018-03-25T02:16:37.264Z,-3.59
2018-03-25T02:17:43.183Z,-3.60
2018-03-25T02:18:49.127Z,-3.58
2018-03-25T02:19:55.072Z,-3.58
2018-03-25T02:21:01.036Z,-3.61
2018-03-25T02:22:06.961Z,-3.59
2018-03-25T02:23:12.911Z,-3.62
2018-03-25T02:24:19.360Z,-3.66
2018-03-25T02:25:24.803Z,-3.67
2018-03-25T02:26:30.762Z,-3.68
2018-03-25T02:27:37.684Z,-3.74
2018-03-25T02:28:42.646Z,-3.73
2018-03-25T02:29:48.585Z,-3.48
2018-03-25T02:30:54.551Z,-3.46
2018-03-25T02:32:00.482Z,-3.35
2018-03-25T02:33:06.434Z,-3.44
2018-03-25T02:34:12.923Z,-3.45
2018-03-25T02:35:18.319Z,-3.49
2018-03-25T02:36:24.781Z,-3.41
2018-03-25T02:37:30.198Z,-3.43
2018-03-25T02:38:36.143Z,-3.48
2018-03-25T02:39:42.087Z,-3.58
2018-03-25T02:40:48.047Z,-3.58
2018-03-25T02:41:53.969Z,-3.65
2018-03-25T02:42:59.918Z,-3.75
2018-03-25T02:44:05.864Z,-3.73
2018-03-25T02:45:11.810Z,-3.75
2018-03-25T02:46:17.780Z,-3.76
2018-03-25T02:47:23.701Z,-3.66
2018-03-25T02:48:30.128Z,-3.66
2018-03-25T02:49:36.074Z,-3.72
2018-03-25T02:50:42.015Z,-3.75
2018-03-25T02:51:47.488Z,-3.82
2018-03-25T02:52:53.413Z,-3.70
2018-03-25T02:53:59.360Z,-3.47
2018-03-25T02:55:05.304Z,-3.38
2018-03-25T02:56:11.256Z,-3.47
2018-03-25T02:57:17.177Z,-3.56
2018-03-25T02:58:23.131Z,-3.53
2018-03-25T02:59:29.082Z,-3.58
2018-03-25T03:00:35.017Z,-3.61
2018-03-25T03:01:40.995Z,-3.71
2018-03-25T03:02:46.908Z,-3.82
2018-03-25T03:03:52.934Z,-3.92
2018-03-25T03:04:58.788Z,-3.94
2018-03-25T03:06:04.755Z,-3.91
2018-03-25T03:07:10.672Z,-3.90
2018-03-25T03:08:16.621Z,-3.90
2018-03-25T03:09:22.553Z,-3.78
2018-03-25T03:10:28.508Z,-3.82
2018-03-25T03:11:34.456Z,-3.90
2018-03-25T03:12:40.381Z,-3.92
2018-03-25T03:13:46.321Z,-3.92
2018-03-25T03:14:52.265Z,-3.91
2018-03-25T03:15:58.206Z,-3.88
2018-03-25T03:17:04.122Z,-3.82
2018-03-25T03:18:10.060Z,-3.88
2018-03-25T03:19:16.493Z,-3.89
2018-03-25T03:20:21.955Z,-3.87
2018-03-25T03:21:27.904Z,-3.90
2018-03-25T03:22:33.837Z,-3.80
2018-03-25T03:23:39.793Z,-3.75
2018-03-25T03:24:46.019Z,-3.70
2018-03-25T03:25:51.687Z,-3.60
2018-03-25T03:26:57.607Z,-3.63
2018-03-25T03:28:03.517Z,-3.76
2018-03-25T03:29:09.467Z,-3.78
2018-03-25T03:30:15.412Z,-3.73
2018-03-25T03:31:21.399Z,-3.71
2018-03-25T03:32:27.273Z,-3.67
2018-03-25T03:33:33.211Z,-3.56
2018-03-25T03:34:39.656Z,-3.59
2018-03-25T03:35:45.104Z,-3.67
2018-03-25T03:36:51.054Z,-3.71
2018-03-25T03:37:56.984Z,-3.74
2018-03-25T03:39:03.215Z,-3.87
2018-03-25T03:40:09.362Z,-3.98
2018-03-25T03:41:14.810Z,-3.99
2018-03-25T03:42:20.742Z,-3.94
2018-03-25T03:43:26.672Z,-3.86
2018-03-25T03:44:32.609Z,-3.76
2018-03-25T03:45:38.550Z,-3.79
2018-03-25T03:46:44.493Z,-3.88
2018-03-25T03:47:50.423Z,-4.00
2018-03-25T03:48:56.954Z,-4.11
2018-03-25T03:50:02.299Z,-4.16
2018-03-25T03:51:08.266Z,-4.14
2018-03-25T03:52:14.172Z,-4.08
2018-03-25T03:53:20.113Z,-4.06
2018-03-25T03:54:26.038Z,-4.11
2018-03-25T03:55:31.980Z,-4.08
2018-03-25T03:56:38.426Z,-4.12
2018-03-25T03:57:43.853Z,-4.15
2018-03-25T03:58:49.779Z,-4.13
2018-03-25T03:59:55.716Z,-4.13
2018-03-25T04:01:01.671Z,-4.14
2018-03-25T04:02:07.586Z,-4.13
2018-03-25T04:03:13.525Z,-4.11
2018-03-25T04:04:19.481Z,-4.11
2018-03-25T04:05:25.893Z,-4.13
2018-03-25T04:06:31.359Z,-4.14
2018-03-25T04:07:37.278Z,-4.12
2018-03-25T04:08:43.191Z,-4.12
2018-03-25T04:09:49.121Z,-4.13
2018-03-25T04:10:55.056Z,-4.15
2018-03-25T04:12:01.021Z,-4.20
2018-03-25T04:13:06.940Z,-4.26
2018-03-25T04:14:12.933Z,-4.19
2018-03-25T04:15:18.978Z,-4.05
2018-03-25T04:16:24.741Z,-4.05
2018-03-25T04:17:30.659Z,-4.12
2018-03-25T04:18:36.593Z,-4.23
2018-03-25T04:19:42.525Z,-4.28
2018-03-25T04:20:48.463Z,-4.29
2018-03-25T04:21:54.416Z,-4.34
2018-03-25T04:23:00.323Z,-4.34
2018-03-25T04:24:06.258Z,-4.19
2018-03-25T04:25:12.186Z,-4.13
2018-03-25T04:26:18.142Z,-4.11
2018-03-25T04:27:24.049Z,-4.06
2018-03-25T04:28:30.010Z,-4.04
2018-03-25T04:29:35.905Z,-4.03
2018-03-25T04:30:42.330Z,-3.99
2018-03-25T04:31:47.791Z,-4.07
2018-03-25T04:32:53.705Z,-4.02
2018-03-25T04:33:59.624Z,-3.99
2018-03-25T04:35:05.568Z,-3.94
2018-03-25T04:36:11.531Z,-3.97
2018-03-25T04:37:17.928Z,-4.04
2018-03-25T04:38:23.371Z,-4.14
2018-03-25T04:39:29.805Z,-4.19
2018-03-25T04:40:35.227Z,-4.16
2018-03-25T04:41:41.180Z,-4.18
2018-03-25T04:42:47.108Z,-4.19
2018-03-25T04:43:53.042Z,-4.20
2018-03-25T04:44:58.981Z,-4.22
2018-03-25T04:46:04.884Z,-4.26
2018-03-25T04:47:10.872Z,-4.27
2018-03-25T04:48:17.254Z,-4.31
2018-03-25T04:49:22.689Z,-4.36
2018-03-25T04:50:29.120Z,-4.38
2018-03-25T04:51:34.576Z,-4.38
2018-03-25T04:52:40.490Z,-4.39
2018-03-25T04:53:46.421Z,-4.34
2018-03-25T04:54:52.354Z,-4.36
2018-03-25T04:55:58.274Z,-4.38
2018-03-25T04:57:04.222Z,-4.39
2018-03-25T04:58:10.146Z,-4.35
2018-03-25T04:59:16.078Z,-4.28
2018-03-25T05:00:22.001Z,-4.33
2018-03-25T05:01:27.949Z,-4.37
2018-03-25T05:02:33.877Z,-4.37
2018-03-25T05:03:39.792Z,-4.34
2018-03-25T05:04:45.728Z,-4.35
2018-03-25T05:05:51.657Z,-4.37
2018-03-25T05:06:57.663Z,-4.38
2018-03-25T05:08:03.521Z,-4.39
2018-03-25T05:09:09.458Z,-4.45
2018-03-25T05:10:15.376Z,-4.43
2018-03-25T05:11:21.325Z,-4.38
2018-03-25T05:12:27.252Z,-4.36
2018-03-25T05:13:33.178Z,-4.27
2018-03-25T05:14:39.108Z,-4.13
2018-03-25T05:15:45.029Z,-4.14
2018-03-25T05:16:51.475Z,-4.20
2018-03-25T05:17:56.892Z,-4.24
2018-03-25T05:19:02.826Z,-4.30
2018-03-25T05:20:08.787Z,-4.26
2018-03-25T05:21:15.200Z,-4.26
2018-03-25T05:22:20.646Z,-4.26
2018-03-25T05:23:26.556Z,-4.25
2018-03-25T05:24:32.483Z,-4.27
2018-03-25T05:25:38.415Z,-4.26
2018-03-25T05:26:44.370Z,-4.27
2018-03-25T05:27:50.303Z,-4.33
2018-03-25T05:28:56.220Z,-4.41
2018-03-25T05:30:02.141Z,-4.40
2018-03-25T05:31:08.073Z,-4.37
2018-03-25T05:32:14.021Z,-4.31
2018-03-25T05:33:20.432Z,-4.27
2018-03-25T05:34:26.370Z,-4.24
2018-03-25T05:35:31.824Z,-4.19
2018-03-25T05:36:37.766Z,-4.20
2018-03-25T05:37:44.159Z,-4.20
2018-03-25T05:38:50.087Z,-4.17
2018-03-25T05:39:56.027Z,-4.11
2018-03-25T05:41:01.465Z,-4.04
2018-03-25T05:42:07.423Z,-3.97
2018-03-25T05:43:13.339Z,-3.90
2018-03-25T05:44:19.290Z,-3.93
2018-03-25T05:45:25.215Z,-3.97
2018-03-25T05:46:31.179Z,-3.96
2018-03-25T05:47:37.098Z,-3.90
2018-03-25T05:48:43.027Z,-3.88
2018-03-25T05:49:48.970Z,-3.86
2018-03-25T05:50:54.902Z,-3.79
2018-03-25T05:52:01.354Z,-3.78
2018-03-25T05:53:06.772Z,-3.75
2018-03-25T05:54:12.714Z,-3.72
2018-03-25T05:55:18.664Z,-3.71
2018-03-25T05:56:24.621Z,-3.71
2018-03-25T05:57:31.064Z,-3.69
2018-03-25T05:58:36.492Z,-3.67
2018-03-25T05:59:42.434Z,-3.70
2018-03-25T06:00:48.375Z,-3.70
2018-03-25T06:01:54.344Z,-3.68
2018-03-25T06:03:00.269Z,-3.61
2018-03-25T06:04:06.218Z,-3.55
2018-03-25T06:05:12.145Z,-3.49
2018-03-25T06:06:18.088Z,-3.39
2018-03-25T06:07:24.055Z,-3.35
2018-03-25T06:08:30.488Z,-3.31
2018-03-25T06:09:35.936Z,-3.25
2018-03-25T06:10:41.896Z,-3.21
2018-03-25T06:11:47.854Z,-3.17
2018-03-25T06:12:53.786Z,-3.16
2018-03-25T06:13:59.725Z,-3.13
2018-03-25T06:15:05.698Z,-3.10
2018-03-25T06:16:11.640Z,-3.06
2018-03-25T06:17:17.603Z,-3.01
2018-03-25T06:18:23.534Z,-2.97
2018-03-25T06:19:30.017Z,-2.95
2018-03-25T06:20:35.462Z,-2.94
2018-03-25T06:21:41.426Z,-2.89
2018-03-25T06:22:47.377Z,-2.86
2018-03-25T06:23:53.339Z,-2.82
2018-03-25T06:24:59.285Z,-2.79
2018-03-25T06:26:05.238Z,-2.75
2018-03-25T06:27:11.218Z,-2.68
2018-03-25T06:28:17.165Z,-2.63
2018-03-25T06:29:23.141Z,-2.58
2018-03-25T06:30:29.089Z,-2.50
2018-03-25T06:31:35.078Z,-2.44
2018-03-25T06:32:41.030Z,-2.39
2018-03-25T06:33:46.991Z,-2.39
2018-03-25T06:34:52.963Z,-2.38
2018-03-25T06:35:58.921Z,-2.34
2018-03-25T06:37:04.923Z,-2.28
2018-03-25T06:38:10.865Z,-2.21
2018-03-25T06:39:16.932Z,-2.16
2018-03-25T06:40:22.814Z,-2.11
2018-03-25T06:41:28.782Z,-2.04
2018-03-25T06:42:34.771Z,-1.97
2018-03-25T06:43:40.723Z,-1.93
2018-03-25T06:44:46.700Z,-1.86
2018-03-25T06:45:52.695Z,-1.84
2018-03-25T06:46:58.672Z,-1.78
2018-03-25T06:48:04.634Z,-1.73
2018-03-25T06:49:10.616Z,-1.64
2018-03-25T06:50:16.590Z,-1.59
2018-03-25T06:51:22.571Z,-1.54
2018-03-25T06:52:28.577Z,-1.50
2018-03-25T06:53:34.531Z,-1.46
2018-03-25T06:54:40.525Z,-1.41
2018-03-25T06:55:46.529Z,-1.36
2018-03-25T06:56:52.508Z,-1.31
2018-03-25T06:57:58.498Z,-1.27
2018-03-25T06:59:04.458Z,-1.23
2018-03-25T07:00:10.451Z,-1.18
2018-03-25T07:01:16.439Z,-1.15
2018-03-25T07:02:22.446Z,-1.08
2018-03-25T07:03:28.926Z,-1.03
2018-03-25T07:04:34.409Z,-1.00
2018-03-25T07:05:40.415Z,-0.95
2018-03-25T07:06:46.433Z,-0.87
2018-03-25T07:07:52.408Z,-0.80
2018-03-25T07:08:58.397Z,-0.78
2018-03-25T07:10:04.402Z,-0.74
2018-03-25T07:11:10.393Z,-0.66
2018-03-25T07:12:16.956Z,-0.56
2018-03-25T07:13:22.388Z,-0.53
2018-03-25T07:14:28.930Z,-0.50
2018-03-25T07:15:34.394Z,-0.47
2018-03-25T07:16:40.934Z,-0.44
2018-03-25T07:17:46.438Z,-0.41
2018-03-25T07:18:52.405Z,-0.38
2018-03-25T07:19:58.412Z,-0.36
2018-03-25T07:21:04.424Z,-0.33
2018-03-25T07:22:10.949Z,-0.31
2018-03-25T07:23:16.630Z,-0.23
2018-03-25T07:24:22.944Z,-0.18
2018-03-25T07:25:28.457Z,-0.11
2018-03-25T07:26:34.469Z,-0.05
2018-03-25T07:27:40.512Z,0.03
2018-03-25T07:28:46.675Z,0.07
2018-03-25T07:29:52.499Z,0.18
2018-03-25T07:30:58.521Z,0.26
2018-03-25T07:32:04.560Z,0.35
2018-03-25T07:33:10.535Z,0.42
2018-03-25T07:34:17.047Z,0.47
2018-03-25T07:35:22.582Z,0.56
2018-03-25T07:36:28.604Z,0.66
2018-03-25T07:37:34.645Z,0.79
2018-03-25T07:38:41.151Z,0.86
2018-03-25T07:39:47.378Z,0.97
2018-03-25T07:40:53.321Z,1.01
2018-03-25T07:43:04.972Z,1.14
2018-03-25T07:44:10.860Z,1.23
2018-03-25T07:45:17.438Z,1.40
2018-03-25T07:46:23.423Z,1.57
2018-03-25T07:47:29.587Z,1.73
2018-03-25T07:48:34.986Z,1.89
2018-03-25T07:49:41.197Z,2.09
2018-03-25T07:50:47.018Z,2.24
2018-03-25T07:51:53.562Z,2.40
2018-03-25T07:52:59.186Z,2.53
2018-03-25T07:54:05.126Z,2.66
2018-03-25T07:55:11.181Z,2.81
2018-03-25T07:56:17.237Z,2.94
2018-03-25T07:57:23.796Z,3.08
2018-03-25T07:58:29.343Z,3.20
2018-03-25T07:59:35.383Z,3.27
2018-03-25T08:00:41.431Z,3.31
2018-03-25T08:01:47.490Z,3.36
2018-03-25T08:02:53.809Z,3.41
2018-03-25T08:03:59.614Z,3.46
2018-03-25T08:05:06.160Z,3.51
2018-03-25T08:06:11.742Z,3.55
2018-03-25T08:08:24.588Z,3.56
2018-03-25T08:09:29.948Z,3.62
2018-03-25T08:10:36.108Z,3.68
2018-03-25T08:11:42.092Z,3.74
2018-03-25T08:12:48.211Z,3.86
2018-03-25T08:13:54.305Z,3.99
2018-03-25T08:15:01.006Z,4.06
2018-03-25T08:16:06.465Z,4.13
2018-03-25T08:17:12.568Z,4.16
2018-03-25T08:18:18.654Z,4.20
2018-03-25T08:19:24.745Z,4.26
2018-03-25T08:20:30.871Z,4.30
2018-03-25T08:21:36.941Z,4.37
2018-03-25T08:22:43.096Z,4.44
2018-03-25T08:23:49.147Z,4.47
2018-03-25T08:24:55.242Z,4.54
2018-03-25T08:26:01.348Z,4.61
2018-03-25T08:27:07.484Z,4.70
2018-03-25T08:28:13.578Z,4.72
2018-03-25T08:29:20.183Z,4.74
2018-03-25T08:30:25.798Z,4.81
2018-03-25T08:31:32.402Z,4.87
2018-03-25T08:32:38.065Z,4.92
2018-03-25T08:33:44.145Z,5.00
2018-03-25T08:34:50.272Z,5.08
2018-03-25T08:35:56.440Z,5.13
2018-03-25T08:37:02.517Z,5.14
2018-03-25T08:38:08.671Z,5.16
2018-03-25T08:39:14.784Z,5.21
2018-03-25T08:40:20.903Z,5.26
2018-03-25T08:41:27.045Z,5.31
2018-03-25T08:42:33.179Z,5.35
2018-03-25T08:43:39.298Z,5.39
2018-03-25T08:44:45.444Z,5.42
2018-03-25T08:45:51.619Z,5.50
2018-03-25T08:46:57.716Z,5.57
2018-03-25T08:48:03.880Z,5.61
2018-03-25T08:49:09.998Z,5.64
2018-03-25T08:50:16.151Z,5.67
2018-03-25T08:51:22.286Z,5.74
2018-03-25T08:52:28.450Z,5.77
2018-03-25T08:53:35.085Z,5.82
2018-03-25T08:54:41.245Z,5.88
2018-03-25T08:55:46.895Z,5.91
2018-03-25T08:56:53.047Z,5.94
2018-03-25T08:57:59.221Z,5.99
2018-03-25T08:59:05.363Z,6.05
2018-03-25T09:00:11.519Z,6.10
2018-03-25T09:01:17.693Z,6.15
2018-03-25T09:02:23.870Z,6.17
2018-03-25T09:03:30.027Z,6.21
2018-03-25T09:04:36.182Z,6.28
2018-03-25T09:05:42.346Z,6.37
2018-03-25T09:06:48.522Z,6.39
2018-03-25T09:07:55.765Z,6.43
2018-03-25T09:09:00.952Z,6.46
2018-03-25T09:10:07.049Z,6.48
2018-03-25T09:11:13.224Z,6.45
2018-03-25T09:12:19.443Z,6.41
2018-03-25T09:13:25.589Z,6.43
2018-03-25T09:14:31.771Z,6.49
2018-03-25T09:15:38.114Z,6.56
2018-03-25T09:16:44.141Z,6.58
2018-03-25T09:17:50.435Z,6.49
2018-03-25T09:18:56.526Z,6.46
2018-03-25T09:20:02.707Z,6.49
2018-03-25T09:21:08.935Z,6.49
2018-03-25T09:22:15.141Z,6.56
2018-03-25T09:23:21.283Z,6.62
2018-03-25T09:24:27.485Z,6.67
2018-03-25T09:25:33.678Z,6.64
2018-03-25T09:26:39.871Z,6.64
2018-03-25T09:27:46.116Z,6.74
2018-03-25T09:28:52.634Z,6.84
2018-03-25T09:29:58.934Z,6.91
2018-03-25T09:31:04.902Z,6.98
2018-03-25T09:32:10.885Z,7.08
2018-03-25T09:33:17.118Z,7.08
2018-03-25T09:34:23.893Z,7.10
2018-03-25T09:35:29.513Z,7.06
2018-03-25T09:36:35.732Z,7.11
2018-03-25T09:37:42.000Z,7.12
2018-03-25T09:38:48.144Z,7.10
2018-03-25T09:39:54.931Z,7.12
2018-03-25T09:41:00.581Z,7.18
2018-03-25T09:42:06.793Z,7.26
2018-03-25T09:43:13.024Z,7.26
2018-03-25T09:44:19.230Z,7.26
2018-03-25T09:45:25.450Z,7.31
2018-03-25T09:46:31.677Z,7.39
2018-03-25T09:47:37.905Z,7.54
2018-03-25T09:48:44.116Z,7.59
2018-03-25T09:49:50.323Z,7.58
2018-03-25T09:50:56.557Z,7.56
2018-03-25T09:52:02.782Z,7.59
2018-03-25T09:53:09.018Z,7.64
2018-03-25T09:54:15.248Z,7.76
2018-03-25T09:55:21.474Z,7.86
2018-03-25T09:56:28.684Z,7.91
2018-03-25T09:57:34.134Z,8.01
2018-03-25T09:58:40.179Z,8.09
2018-03-25T09:59:46.403Z,8.10
2018-03-25T10:00:52.657Z,8.10
2018-03-25T10:01:58.943Z,8.14
2018-03-25T10:03:05.139Z,8.21
2018-03-25T10:04:11.369Z,8.30
2018-03-25T10:05:17.609Z,8.31
2018-03-25T10:06:23.940Z,8.36
2018-03-25T10:07:30.119Z,8.46
2018-03-25T10:08:36.337Z,8.54
2018-03-25T10:09:42.595Z,8.57
2018-03-25T10:10:48.841Z,8.58
2018-03-25T10:11:55.093Z,8.64
2018-03-25T10:13:01.383Z,8.74
2018-03-25T10:14:08.111Z,8.79
2018-03-25T10:15:13.877Z,8.77
2018-03-25T10:16:20.115Z,8.69
2018-03-25T10:17:26.394Z,8.63
2018-03-25T10:18:32.675Z,8.61
2018-03-25T10:19:38.920Z,8.63
2018-03-25T10:20:45.185Z,8.78
2018-03-25T10:21:51.449Z,8.91
2018-03-25T10:22:57.761Z,8.97
2018-03-25T10:24:03.983Z,9.03
2018-03-25T10:25:10.752Z,9.11
2018-03-25T10:26:16.546Z,9.17
2018-03-25T10:27:22.801Z,9.17
2018-03-25T10:28:29.097Z,9.18
2018-03-25T10:29:35.393Z,9.19
2018-03-25T10:30:41.617Z,9.25
2018-03-25T10:31:47.908Z,9.27
2018-03-25T10:32:54.218Z,9.27
2018-03-25T10:34:00.468Z,9.30
2018-03-25T10:35:06.751Z,9.39
2018-03-25T10:36:13.096Z,9.43
2018-03-25T10:37:19.326Z,9.51
2018-03-25T10:38:25.643Z,9.53
2018-03-25T10:39:31.924Z,9.56
2018-03-25T10:40:38.196Z,9.60
2018-03-25T10:41:44.497Z,9.59
2018-03-25T10:42:51.308Z,9.60
2018-03-25T10:43:57.071Z,9.62
2018-03-25T10:45:03.434Z,9.59
2018-03-25T10:46:09.680Z,9.64
2018-03-25T10:47:16.020Z,9.74
2018-03-25T10:48:22.391Z,9.82
2018-03-25T10:49:29.179Z,9.89
2018-03-25T10:50:34.940Z,9.87
2018-03-25T10:51:41.187Z,9.83
2018-03-25T10:52:47.523Z,9.75
2018-03-25T10:53:53.813Z,9.70
2018-03-25T10:55:00.606Z,9.80
2018-03-25T10:56:06.424Z,9.95
2018-03-25T10:57:12.730Z,10.05
2018-03-25T10:58:19.055Z,10.01
2018-03-25T10:59:25.353Z,9.96
2018-03-25T11:00:31.676Z,9.98
2018-03-25T11:01:37.975Z,10.00
2018-03-25T11:02:44.320Z,10.11
2018-03-25T11:03:50.632Z,10.25
2018-03-25T11:04:56.949Z,10.36
2018-03-25T11:06:03.251Z,10.44
2018-03-25T11:07:09.584Z,10.43
2018-03-25T11:08:15.934Z,10.39
2018-03-25T11:09:22.232Z,10.39
2018-03-25T11:10:28.552Z,10.38
2018-03-25T11:11:34.944Z,10.54
2018-03-25T11:12:41.213Z,10.69
2018-03-25T11:13:47.553Z,10.68
2018-03-25T11:14:53.864Z,10.64
2018-03-25T11:16:00.206Z,10.57
2018-03-25T11:17:06.525Z,10.57
2018-03-25T11:18:12.969Z,10.54
2018-03-25T11:19:19.225Z,10.60
2018-03-25T11:20:25.551Z,10.63
2018-03-25T11:21:31.880Z,10.67
2018-03-25T11:22:38.230Z,10.73
2018-03-25T11:23:44.581Z,10.76
2018-03-25T11:24:50.902Z,10.82
2018-03-25T11:25:57.238Z,10.92
2018-03-25T11:27:04.072Z,10.96
2018-03-25T11:28:09.948Z,11.06
2018-03-25T11:29:16.273Z,11.14
2018-03-25T11:30:22.623Z,11.12
2018-03-25T11:31:28.974Z,11.09
2018-03-25T11:32:35.332Z,11.13
2018-03-25T11:33:41.777Z,11.17
2018-03-25T11:34:48.129Z,11.17
2018-03-25T11:35:54.512Z,11.24
2018-03-25T11:37:00.970Z,11.36
2018-03-25T11:38:07.488Z,11.47
2018-03-25T11:39:13.953Z,11.48
2018-03-25T11:40:20.546Z,11.50
2018-03-25T11:41:27.071Z,11.43
2018-03-25T11:42:33.679Z,11.35
2018-03-25T11:43:40.316Z,11.38
2018-03-25T11:44:46.944Z,11.44
2018-03-25T11:45:53.602Z,11.43
2018-03-25T11:47:00.305Z,11.41
2018-03-25T11:48:07.035Z,11.49
2018-03-25T11:49:13.880Z,11.40
2018-03-25T11:50:20.513Z,11.27
2018-03-25T11:51:27.276Z,11.23
2018-03-25T11:52:34.040Z,11.28
2018-03-25T11:53:40.950Z,11.19
2018-03-25T11:54:47.679Z,11.10
2018-03-25T11:55:54.577Z,11.21
2018-03-25T11:57:01.360Z,11.41
2018-03-25T11:58:08.265Z,11.55
2018-03-25T11:59:15.149Z,11.58
2018-03-25T12:00:22.026Z,11.60
2018-03-25T12:01:28.893Z,11.66
2018-03-25T12:02:35.796Z,11.81
2018-03-25T12:03:42.725Z,11.92
2018-03-25T12:04:50.132Z,12.01
2018-03-25T12:05:56.572Z,11.94
2018-03-25T12:07:03.527Z,11.84
2018-03-25T12:08:10.499Z,11.78
2018-03-25T12:09:17.436Z,11.91
2018-03-25T12:10:24.501Z,12.03
2018-03-25T12:11:31.388Z,12.11
2018-03-25T12:12:38.354Z,12.06
2018-03-25T12:13:45.354Z,12.06
2018-03-25T12:14:52.356Z,12.07
2018-03-25T12:15:59.314Z,12.20
2018-03-25T12:17:06.316Z,12.35
2018-03-25T12:18:13.350Z,12.42
2018-03-25T12:19:20.345Z,12.41
2018-03-25T12:20:27.359Z,12.40
2018-03-25T12:21:34.381Z,12.40
2018-03-25T12:22:41.404Z,12.33
2018-03-25T12:23:48.466Z,12.29
2018-03-25T12:24:55.478Z,12.33
2018-03-25T12:26:02.515Z,12.47
2018-03-25T12:27:09.579Z,12.61
2018-03-25T12:28:16.967Z,12.70
2018-03-25T12:29:23.677Z,12.82
2018-03-25T12:30:30.752Z,12.87
2018-03-25T12:31:37.824Z,12.93
2018-03-25T12:32:44.902Z,12.95
2018-03-25T12:33:52.034Z,12.90
2018-03-25T12:34:59.081Z,12.93
2018-03-25T12:36:06.193Z,12.88
2018-03-25T12:37:13.292Z,12.86
2018-03-25T12:38:20.402Z,12.95
2018-03-25T12:39:27.521Z,12.90
2018-03-25T12:40:34.638Z,12.96
2018-03-25T12:41:41.697Z,13.03
2018-03-25T12:42:48.800Z,13.17
2018-03-25T12:43:55.931Z,13.18
2018-03-25T12:45:03.018Z,13.08
2018-03-25T12:46:10.133Z,12.90
2018-03-25T12:47:17.235Z,12.88
2018-03-25T12:48:24.385Z,13.02
2018-03-25T12:49:31.485Z,13.13
2018-03-25T12:50:38.611Z,13.30
2018-03-25T12:51:45.751Z,13.43
2018-03-25T12:52:52.885Z,13.53
2018-03-25T12:54:00.039Z,13.57
2018-03-25T12:55:07.193Z,13.55
2018-03-25T12:56:14.316Z,13.55
2018-03-25T12:57:21.473Z,13.55
2018-03-25T12:58:28.658Z,13.52
2018-03-25T12:59:35.824Z,13.50
2018-03-25T13:00:43.019Z,13.55
2018-03-25T13:01:50.221Z,13.65
2018-03-25T13:02:57.440Z,13.57
2018-03-25T13:04:04.705Z,13.60
2018-03-25T13:05:11.925Z,13.72
2018-03-25T13:06:19.186Z,13.77
2018-03-25T13:07:26.465Z,13.88
2018-03-25T13:08:33.756Z,13.86
2018-03-25T13:09:41.037Z,13.86
2018-03-25T13:10:48.330Z,13.96
2018-03-25T13:11:55.644Z,14.08
2018-03-25T13:13:02.953Z,14.14
2018-03-25T13:14:10.295Z,14.14
2018-03-25T13:15:17.592Z,14.15
2018-03-25T13:16:25.940Z,14.14
2018-03-25T13:17:32.255Z,13.99
2018-03-25T13:18:39.612Z,13.81
2018-03-25T13:19:46.918Z,13.81
2018-03-25T13:20:54.251Z,13.82
2018-03-25T13:22:01.574Z,13.87
2018-03-25T13:23:08.912Z,14.01
2018-03-25T13:24:16.248Z,14.05
2018-03-25T13:25:23.553Z,14.04
2018-03-25T13:26:30.978Z,13.92
2018-03-25T13:27:38.245Z,13.87
2018-03-25T13:28:45.506Z,13.84
2018-03-25T13:29:52.792Z,13.94
2018-03-25T13:31:00.087Z,14.03
2018-03-25T13:32:07.390Z,14.22
2018-03-25T13:33:14.697Z,14.34
2018-03-25T13:34:21.998Z,14.37
2018-03-25T13:35:29.256Z,14.41
2018-03-25T13:36:36.552Z,14.45
2018-03-25T13:37:43.806Z,14.44
2018-03-25T13:38:51.126Z,14.33
2018-03-25T13:39:58.325Z,14.30
2018-03-25T13:41:05.643Z,14.31
2018-03-25T13:42:12.919Z,14.34
2018-03-25T13:43:20.085Z,14.38
2018-03-25T13:44:27.337Z,14.48
2018-03-25T13:45:34.606Z,14.62
2018-03-25T13:46:41.750Z,14.58
2018-03-25T13:47:48.968Z,14.57
2018-03-25T13:48:56.199Z,14.61
2018-03-25T13:50:03.379Z,14.65
2018-03-25T13:51:10.568Z,14.66
2018-03-25T13:52:17.734Z,14.67
2018-03-25T13:53:24.935Z,14.72
2018-03-25T13:54:32.071Z,14.76
2018-03-25T13:55:39.214Z,14.71
2018-03-25T13:56:46.366Z,14.68
2018-03-25T13:57:53.528Z,14.79
2018-03-25T13:59:00.673Z,14.84
2018-03-25T14:00:07.789Z,14.92
2018-03-25T14:01:14.925Z,15.01
2018-03-25T14:02:22.059Z,15.02
2018-03-25T14:03:29.202Z,15.07
2018-03-25T14:04:36.309Z,15.06
2018-03-25T14:05:43.449Z,15.01
2018-03-25T14:06:50.563Z,14.52
2018-03-25T14:07:57.672Z,14.33
2018-03-25T14:09:04.814Z,14.15
2018-03-25T14:10:11.984Z,13.92
2018-03-25T14:11:19.006Z,13.86
2018-03-25T14:12:26.101Z,13.76
2018-03-25T14:13:33.186Z,13.75
2018-03-25T14:14:40.727Z,13.75
2018-03-25T14:15:47.302Z,13.91
2018-03-25T14:16:54.394Z,13.89
2018-03-25T14:18:01.419Z,13.99
2018-03-25T14:19:08.512Z,14.09
2018-03-25T14:20:15.533Z,14.05
2018-03-25T14:21:22.577Z,13.88
2018-03-25T14:22:29.627Z,13.77
2018-03-25T14:23:36.699Z,13.55
2018-03-25T14:24:43.702Z,13.43
2018-03-25T14:25:50.739Z,13.65
2018-03-25T14:26:57.766Z,13.94
2018-03-25T14:28:04.800Z,14.05